sensor_id;sensor_type;location;lat;lon;timestamp;temperature;humidity
14142;DHT22;7151;52.246;4.820;2022-08-21T00:02:15;23.30;57.10
14142;DHT22;7151;52.246;4.820;2022-08-21T00:04:41;23.30;57.20
14142;DHT22;7151;52.246;4.820;2022-08-21T00:07:06;23.30;57.20
14142;DHT22;7151;52.246;4.820;2022-08-21T00:09:32;23.20;57.30
14142;DHT22;7151;52.246;4.820;2022-08-21T00:11:57;23.20;57.40
14142;DHT22;7151;52.246;4.820;2022-08-21T00:14:23;23.10;57.50
14142;DHT22;7151;52.246;4.820;2022-08-21T00:16:48;23.10;57.70
14142;DHT22;7151;52.246;4.820;2022-08-21T00:19:14;23.10;57.60
14142;DHT22;7151;52.246;4.820;2022-08-21T00:21:40;23.10;57.70
14142;DHT22;7151;52.246;4.820;2022-08-21T00:24:06;23.00;57.80
14142;DHT22;7151;52.246;4.820;2022-08-21T00:26:32;23.00;57.90
14142;DHT22;7151;52.246;4.820;2022-08-21T00:28:57;23.00;58.50
14142;DHT22;7151;52.246;4.820;2022-08-21T00:31:23;23.00;58.00
14142;DHT22;7151;52.246;4.820;2022-08-21T00:33:49;23.00;58.20
14142;DHT22;7151;52.246;4.820;2022-08-21T00:36:14;22.90;58.10
14142;DHT22;7151;52.246;4.820;2022-08-21T00:38:40;22.90;58.30
14142;DHT22;7151;52.246;4.820;2022-08-21T00:41:07;22.90;58.40
14142;DHT22;7151;52.246;4.820;2022-08-21T00:43:35;22.90;58.50
14142;DHT22;7151;52.246;4.820;2022-08-21T00:46:02;22.80;58.60
14142;DHT22;7151;52.246;4.820;2022-08-21T00:48:28;22.90;58.80
14142;DHT22;7151;52.246;4.820;2022-08-21T00:51:06;22.80;58.90
14142;DHT22;7151;52.246;4.820;2022-08-21T00:53:36;22.80;59.00
14142;DHT22;7151;52.246;4.820;2022-08-21T00:56:05;22.80;59.10
14142;DHT22;7151;52.246;4.820;2022-08-21T00:58:32;22.80;59.20
14142;DHT22;7151;52.246;4.820;2022-08-21T01:01:02;22.80;59.30
14142;DHT22;7151;52.246;4.820;2022-08-21T01:03:28;22.80;59.40
14142;DHT22;7151;52.246;4.820;2022-08-21T01:05:54;22.80;59.50
14142;DHT22;7151;52.246;4.820;2022-08-21T01:08:21;22.70;59.50
14142;DHT22;7151;52.246;4.820;2022-08-21T01:10:47;22.70;59.60
14142;DHT22;7151;52.246;4.820;2022-08-21T01:13:16;22.70;59.70
14142;DHT22;7151;52.246;4.820;2022-08-21T01:15:45;22.70;59.80
14142;DHT22;7151;52.246;4.820;2022-08-21T01:18:11;22.60;59.90
14142;DHT22;7151;52.246;4.820;2022-08-21T01:20:40;22.60;59.90
14142;DHT22;7151;52.246;4.820;2022-08-21T01:23:07;22.60;60.00
14142;DHT22;7151;52.246;4.820;2022-08-21T01:25:33;22.60;60.10
14142;DHT22;7151;52.246;4.820;2022-08-21T01:28:04;22.60;60.20
14142;DHT22;7151;52.246;4.820;2022-08-21T01:30:33;22.50;60.30
14142;DHT22;7151;52.246;4.820;2022-08-21T01:33:00;22.50;60.50
14142;DHT22;7151;52.246;4.820;2022-08-21T01:35:26;22.50;60.60
14142;DHT22;7151;52.246;4.820;2022-08-21T01:37:51;22.50;60.70
14142;DHT22;7151;52.246;4.820;2022-08-21T01:40:18;22.50;60.80
14142;DHT22;7151;52.246;4.820;2022-08-21T01:42:45;22.40;60.90
14142;DHT22;7151;52.246;4.820;2022-08-21T01:45:12;22.50;61.10
14142;DHT22;7151;52.246;4.820;2022-08-21T01:47:38;22.40;61.20
14142;DHT22;7151;52.246;4.820;2022-08-21T01:50:06;22.40;61.20
14142;DHT22;7151;52.246;4.820;2022-08-21T01:52:32;22.40;61.40
14142;DHT22;7151;52.246;4.820;2022-08-21T01:54:58;22.40;61.40
14142;DHT22;7151;52.246;4.820;2022-08-21T01:57:24;22.30;61.40
14142;DHT22;7151;52.246;4.820;2022-08-21T01:59:49;22.30;61.50
14142;DHT22;7151;52.246;4.820;2022-08-21T02:02:15;22.30;61.60
14142;DHT22;7151;52.246;4.820;2022-08-21T02:04:40;22.30;61.80
14142;DHT22;7151;52.246;4.820;2022-08-21T02:07:06;22.30;61.90
14142;DHT22;7151;52.246;4.820;2022-08-21T02:09:32;22.20;62.10
14142;DHT22;7151;52.246;4.820;2022-08-21T02:11:59;22.20;62.20
14142;DHT22;7151;52.246;4.820;2022-08-21T02:14:25;22.20;62.30
14142;DHT22;7151;52.246;4.820;2022-08-21T02:16:50;22.20;62.40
14142;DHT22;7151;52.246;4.820;2022-08-21T02:19:16;22.20;62.50
14142;DHT22;7151;52.246;4.820;2022-08-21T02:21:42;22.20;62.70
14142;DHT22;7151;52.246;4.820;2022-08-21T02:24:08;22.20;62.80
14142;DHT22;7151;52.246;4.820;2022-08-21T02:26:34;22.20;63.00
14142;DHT22;7151;52.246;4.820;2022-08-21T02:29:00;22.20;63.10
14142;DHT22;7151;52.246;4.820;2022-08-21T02:31:26;22.20;63.20
14142;DHT22;7151;52.246;4.820;2022-08-21T02:33:52;22.10;63.20
14142;DHT22;7151;52.246;4.820;2022-08-21T02:36:18;22.10;63.30
14142;DHT22;7151;52.246;4.820;2022-08-21T02:38:44;22.10;63.40
14142;DHT22;7151;52.246;4.820;2022-08-21T02:41:15;22.10;63.60
14142;DHT22;7151;52.246;4.820;2022-08-21T02:43:42;22.10;63.70
14142;DHT22;7151;52.246;4.820;2022-08-21T02:46:10;22.10;63.80
14142;DHT22;7151;52.246;4.820;2022-08-21T02:48:37;22.10;63.90
14142;DHT22;7151;52.246;4.820;2022-08-21T02:51:11;22.10;64.00
14142;DHT22;7151;52.246;4.820;2022-08-21T02:53:37;22.10;64.10
14142;DHT22;7151;52.246;4.820;2022-08-21T02:56:05;22.00;64.00
14142;DHT22;7151;52.246;4.820;2022-08-21T02:58:35;22.00;64.00
14142;DHT22;7151;52.246;4.820;2022-08-21T03:01:00;22.10;64.20
14142;DHT22;7151;52.246;4.820;2022-08-21T03:03:27;22.00;64.20
14142;DHT22;7151;52.246;4.820;2022-08-21T03:05:54;22.00;64.30
14142;DHT22;7151;52.246;4.820;2022-08-21T03:08:20;21.90;64.30
14142;DHT22;7151;52.246;4.820;2022-08-21T03:10:48;21.90;64.30
14142;DHT22;7151;52.246;4.820;2022-08-21T03:13:16;21.90;64.50
14142;DHT22;7151;52.246;4.820;2022-08-21T03:15:43;21.90;64.50
14142;DHT22;7151;52.246;4.820;2022-08-21T03:18:09;21.90;64.60
14142;DHT22;7151;52.246;4.820;2022-08-21T03:20:37;21.90;64.70
14142;DHT22;7151;52.246;4.820;2022-08-21T03:23:03;21.90;64.80
14142;DHT22;7151;52.246;4.820;2022-08-21T03:25:30;21.80;64.80
14142;DHT22;7151;52.246;4.820;2022-08-21T03:27:59;21.80;65.00
14142;DHT22;7151;52.246;4.820;2022-08-21T03:30:25;21.80;65.10
14142;DHT22;7151;52.246;4.820;2022-08-21T03:32:50;21.80;65.20
14142;DHT22;7151;52.246;4.820;2022-08-21T03:35:17;21.80;65.30
14142;DHT22;7151;52.246;4.820;2022-08-21T03:37:43;21.70;65.30
14142;DHT22;7151;52.246;4.820;2022-08-21T03:40:11;21.80;65.50
14142;DHT22;7151;52.246;4.820;2022-08-21T03:42:37;21.70;65.60
14142;DHT22;7151;52.246;4.820;2022-08-21T03:45:04;21.70;65.60
14142;DHT22;7151;52.246;4.820;2022-08-21T03:47:30;21.70;65.70
14142;DHT22;7151;52.246;4.820;2022-08-21T03:49:55;21.70;65.70
14142;DHT22;7151;52.246;4.820;2022-08-21T03:52:21;21.70;65.90
14142;DHT22;7151;52.246;4.820;2022-08-21T03:54:47;21.60;65.90
14142;DHT22;7151;52.246;4.820;2022-08-21T03:57:13;21.60;65.90
14142;DHT22;7151;52.246;4.820;2022-08-21T03:59:38;21.60;66.80
14142;DHT22;7151;52.246;4.820;2022-08-21T04:02:08;21.60;66.20
14142;DHT22;7151;52.246;4.820;2022-08-21T04:04:34;21.60;66.30
14142;DHT22;7151;52.246;4.820;2022-08-21T04:07:00;21.60;66.30
14142;DHT22;7151;52.246;4.820;2022-08-21T04:09:26;21.60;66.40
14142;DHT22;7151;52.246;4.820;2022-08-21T04:11:52;21.50;66.40
14142;DHT22;7151;52.246;4.820;2022-08-21T04:14:19;21.50;66.50
14142;DHT22;7151;52.246;4.820;2022-08-21T04:16:45;21.50;66.50
14142;DHT22;7151;52.246;4.820;2022-08-21T04:19:12;21.50;66.50
14142;DHT22;7151;52.246;4.820;2022-08-21T04:21:41;21.50;66.60
14142;DHT22;7151;52.246;4.820;2022-08-21T04:24:09;21.50;66.70
14142;DHT22;7151;52.246;4.820;2022-08-21T04:26:36;21.40;66.70
14142;DHT22;7151;52.246;4.820;2022-08-21T04:29:02;21.40;67.30
14142;DHT22;7151;52.246;4.820;2022-08-21T04:31:28;21.40;67.00
14142;DHT22;7151;52.246;4.820;2022-08-21T04:33:54;21.40;67.00
14142;DHT22;7151;52.246;4.820;2022-08-21T04:36:20;21.40;67.20
14142;DHT22;7151;52.246;4.820;2022-08-21T04:38:46;21.30;67.20
14142;DHT22;7151;52.246;4.820;2022-08-21T04:41:12;21.40;67.40
14142;DHT22;7151;52.246;4.820;2022-08-21T04:43:38;21.30;67.40
14142;DHT22;7151;52.246;4.820;2022-08-21T04:46:04;21.30;67.50
14142;DHT22;7151;52.246;4.820;2022-08-21T04:48:31;21.30;67.50
14142;DHT22;7151;52.246;4.820;2022-08-21T04:51:17;21.30;67.60
14142;DHT22;7151;52.246;4.820;2022-08-21T04:53:51;21.30;67.70
14142;DHT22;7151;52.246;4.820;2022-08-21T04:57:23;21.30;67.70
14142;DHT22;7151;52.246;4.820;2022-08-21T04:59:21;21.30;67.80
14142;DHT22;7151;52.246;4.820;2022-08-21T05:01:47;21.30;67.70
14142;DHT22;7151;52.246;4.820;2022-08-21T05:04:16;21.30;67.80
14142;DHT22;7151;52.246;4.820;2022-08-21T05:06:46;21.30;67.90
14142;DHT22;7151;52.246;4.820;2022-08-21T05:09:14;21.20;68.00
14142;DHT22;7151;52.246;4.820;2022-08-21T05:11:40;21.20;68.10
14142;DHT22;7151;52.246;4.820;2022-08-21T05:14:07;21.20;68.20
14142;DHT22;7151;52.246;4.820;2022-08-21T05:16:33;21.20;68.20
14142;DHT22;7151;52.246;4.820;2022-08-21T05:18:58;21.20;68.20
14142;DHT22;7151;52.246;4.820;2022-08-21T05:21:24;21.20;68.30
14142;DHT22;7151;52.246;4.820;2022-08-21T05:23:49;21.20;68.50
14142;DHT22;7151;52.246;4.820;2022-08-21T05:26:15;21.20;68.50
14142;DHT22;7151;52.246;4.820;2022-08-21T05:28:41;21.20;68.50
14142;DHT22;7151;52.246;4.820;2022-08-21T05:31:06;21.20;68.70
14142;DHT22;7151;52.246;4.820;2022-08-21T05:33:32;21.20;68.80
14142;DHT22;7151;52.246;4.820;2022-08-21T05:35:57;21.20;68.80
14142;DHT22;7151;52.246;4.820;2022-08-21T05:38:24;21.20;68.90
14142;DHT22;7151;52.246;4.820;2022-08-21T05:40:51;21.20;68.90
14142;DHT22;7151;52.246;4.820;2022-08-21T05:43:16;21.20;68.90
14142;DHT22;7151;52.246;4.820;2022-08-21T05:45:43;21.20;69.00
14142;DHT22;7151;52.246;4.820;2022-08-21T05:48:12;21.20;69.10
14142;DHT22;7151;52.246;4.820;2022-08-21T05:50:37;21.20;69.20
14142;DHT22;7151;52.246;4.820;2022-08-21T05:53:04;21.20;69.30
14142;DHT22;7151;52.246;4.820;2022-08-21T05:55:30;21.20;69.50
14142;DHT22;7151;52.246;4.820;2022-08-21T05:57:56;21.20;69.60
14142;DHT22;7151;52.246;4.820;2022-08-21T06:00:21;21.20;69.80
14142;DHT22;7151;52.246;4.820;2022-08-21T06:02:48;21.30;70.00
14142;DHT22;7151;52.246;4.820;2022-08-21T06:05:15;21.30;70.10
14142;DHT22;7151;52.246;4.820;2022-08-21T06:07:41;21.30;70.20
14142;DHT22;7151;52.246;4.820;2022-08-21T06:10:07;21.30;70.30
14142;DHT22;7151;52.246;4.820;2022-08-21T06:12:33;21.30;70.50
14142;DHT22;7151;52.246;4.820;2022-08-21T06:14:58;21.30;70.70
14142;DHT22;7151;52.246;4.820;2022-08-21T06:17:24;21.30;70.80
14142;DHT22;7151;52.246;4.820;2022-08-21T06:19:53;21.30;71.00
14142;DHT22;7151;52.246;4.820;2022-08-21T06:22:19;21.30;71.20
14142;DHT22;7151;52.246;4.820;2022-08-21T06:24:45;21.30;71.50
14142;DHT22;7151;52.246;4.820;2022-08-21T06:27:10;21.40;71.50
14142;DHT22;7151;52.246;4.820;2022-08-21T06:29:36;21.40;71.50
14142;DHT22;7151;52.246;4.820;2022-08-21T06:32:02;21.40;71.70
14142;DHT22;7151;52.246;4.820;2022-08-21T06:34:28;21.50;71.80
14142;DHT22;7151;52.246;4.820;2022-08-21T06:36:53;21.50;71.90
14142;DHT22;7151;52.246;4.820;2022-08-21T06:39:19;21.50;72.00
14142;DHT22;7151;52.246;4.820;2022-08-21T06:41:45;21.50;72.10
14142;DHT22;7151;52.246;4.820;2022-08-21T06:44:10;21.50;72.10
14142;DHT22;7151;52.246;4.820;2022-08-21T06:46:36;21.60;72.40
14142;DHT22;7151;52.246;4.820;2022-08-21T06:49:02;21.60;72.50
14142;DHT22;7151;52.246;4.820;2022-08-21T06:51:28;21.60;72.60
14142;DHT22;7151;52.246;4.820;2022-08-21T06:53:54;21.60;72.80
14142;DHT22;7151;52.246;4.820;2022-08-21T06:56:20;21.60;73.00
14142;DHT22;7151;52.246;4.820;2022-08-21T06:58:46;21.60;73.90
14142;DHT22;7151;52.246;4.820;2022-08-21T07:01:11;21.70;73.50
14142;DHT22;7151;52.246;4.820;2022-08-21T07:03:40;21.70;73.60
14142;DHT22;7151;52.246;4.820;2022-08-21T07:06:07;21.70;73.80
14142;DHT22;7151;52.246;4.820;2022-08-21T07:08:33;21.80;74.00
14142;DHT22;7151;52.246;4.820;2022-08-21T07:11:01;21.80;74.00
14142;DHT22;7151;52.246;4.820;2022-08-21T07:13:28;21.80;74.20
14142;DHT22;7151;52.246;4.820;2022-08-21T07:15:54;21.90;74.30
14142;DHT22;7151;52.246;4.820;2022-08-21T07:18:19;21.90;74.40
14142;DHT22;7151;52.246;4.820;2022-08-21T07:20:46;21.90;74.50
14142;DHT22;7151;52.246;4.820;2022-08-21T07:23:32;21.90;74.60
14142;DHT22;7151;52.246;4.820;2022-08-21T07:25:58;22.00;75.00
14142;DHT22;7151;52.246;4.820;2022-08-21T07:28:26;22.00;74.80
14142;DHT22;7151;52.246;4.820;2022-08-21T07:30:54;22.00;74.90
14142;DHT22;7151;52.246;4.820;2022-08-21T07:33:20;22.10;75.00
14142;DHT22;7151;52.246;4.820;2022-08-21T07:35:46;22.10;75.00
14142;DHT22;7151;52.246;4.820;2022-08-21T07:38:11;22.10;75.10
14142;DHT22;7151;52.246;4.820;2022-08-21T07:40:37;22.20;75.20
14142;DHT22;7151;52.246;4.820;2022-08-21T07:43:03;22.20;75.30
14142;DHT22;7151;52.246;4.820;2022-08-21T07:45:29;22.30;75.40
14142;DHT22;7151;52.246;4.820;2022-08-21T07:47:55;22.30;75.50
14142;DHT22;7151;52.246;4.820;2022-08-21T07:50:20;22.40;75.70
14142;DHT22;7151;52.246;4.820;2022-08-21T07:52:46;22.40;75.60
14142;DHT22;7151;52.246;4.820;2022-08-21T07:55:15;22.40;75.70
14142;DHT22;7151;52.246;4.820;2022-08-21T07:57:41;22.50;75.90
14142;DHT22;7151;52.246;4.820;2022-08-21T08:00:11;22.50;76.00
14142;DHT22;7151;52.246;4.820;2022-08-21T08:02:37;22.60;76.10
14142;DHT22;7151;52.246;4.820;2022-08-21T08:05:05;22.60;76.10
14142;DHT22;7151;52.246;4.820;2022-08-21T08:07:31;22.60;76.10
14142;DHT22;7151;52.246;4.820;2022-08-21T08:09:57;22.70;76.00
14142;DHT22;7151;52.246;4.820;2022-08-21T08:12:24;22.80;76.10
14142;DHT22;7151;52.246;4.820;2022-08-21T08:14:58;22.90;76.00
14142;DHT22;7151;52.246;4.820;2022-08-21T08:17:24;22.90;75.80
14142;DHT22;7151;52.246;4.820;2022-08-21T08:19:50;23.00;75.80
14142;DHT22;7151;52.246;4.820;2022-08-21T08:22:17;23.00;75.70
14142;DHT22;7151;52.246;4.820;2022-08-21T08:24:45;23.00;76.00
14142;DHT22;7151;52.246;4.820;2022-08-21T08:27:11;23.10;75.60
14142;DHT22;7151;52.246;4.820;2022-08-21T08:29:37;23.10;75.60
14142;DHT22;7151;52.246;4.820;2022-08-21T08:32:04;23.10;75.40
14142;DHT22;7151;52.246;4.820;2022-08-21T08:34:32;23.20;75.30
14142;DHT22;7151;52.246;4.820;2022-08-21T08:36:58;23.20;75.10
14142;DHT22;7151;52.246;4.820;2022-08-21T08:39:24;23.20;75.10
14142;DHT22;7151;52.246;4.820;2022-08-21T08:41:56;23.20;75.30
14142;DHT22;7151;52.246;4.820;2022-08-21T08:44:24;23.30;75.30
14142;DHT22;7151;52.246;4.820;2022-08-21T08:46:51;23.40;75.30
14142;DHT22;7151;52.246;4.820;2022-08-21T08:52:11;23.40;74.60
14142;DHT22;7151;52.246;4.820;2022-08-21T08:54:45;23.60;74.60
14142;DHT22;7151;52.246;4.820;2022-08-21T08:57:17;23.80;74.40
14142;DHT22;7151;52.246;4.820;2022-08-21T08:59:46;23.90;74.10
14142;DHT22;7151;52.246;4.820;2022-08-21T09:02:15;24.00;73.70
14142;DHT22;7151;52.246;4.820;2022-08-21T09:04:41;24.10;73.40
14142;DHT22;7151;52.246;4.820;2022-08-21T09:13:16;24.50;72.70
14142;DHT22;7151;52.246;4.820;2022-08-21T09:15:28;24.60;72.50
14142;DHT22;7151;52.246;4.820;2022-08-21T09:20:41;24.80;72.00
14142;DHT22;7151;52.246;4.820;2022-08-21T09:26:24;24.90;71.20
14142;DHT22;7151;52.246;4.820;2022-08-21T09:28:56;25.00;71.30
14142;DHT22;7151;52.246;4.820;2022-08-21T09:31:28;25.00;71.00
14142;DHT22;7151;52.246;4.820;2022-08-21T09:34:09;25.00;70.60
14142;DHT22;7151;52.246;4.820;2022-08-21T09:36:48;25.00;70.00
14142;DHT22;7151;52.246;4.820;2022-08-21T09:39:27;25.00;69.70
14142;DHT22;7151;52.246;4.820;2022-08-21T09:44:32;25.00;69.20
14142;DHT22;7151;52.246;4.820;2022-08-21T09:46:59;25.00;69.00
14142;DHT22;7151;52.246;4.820;2022-08-21T09:49:29;25.10;69.10
14142;DHT22;7151;52.246;4.820;2022-08-21T09:51:56;25.10;69.20
14142;DHT22;7151;52.246;4.820;2022-08-21T09:54:29;25.20;69.50
14142;DHT22;7151;52.246;4.820;2022-08-21T09:57:06;25.20;69.50
14142;DHT22;7151;52.246;4.820;2022-08-21T10:00:06;25.20;69.00
14142;DHT22;7151;52.246;4.820;2022-08-21T10:02:34;25.30;68.60
14142;DHT22;7151;52.246;4.820;2022-08-21T10:05:25;25.30;68.30
14142;DHT22;7151;52.246;4.820;2022-08-21T10:07:51;25.40;68.10
14142;DHT22;7151;52.246;4.820;2022-08-21T10:10:30;25.40;68.20
14142;DHT22;7151;52.246;4.820;2022-08-21T10:12:58;25.50;67.90
14142;DHT22;7151;52.246;4.820;2022-08-21T10:16:02;25.50;67.20
14142;DHT22;7151;52.246;4.820;2022-08-21T10:21:57;25.60;67.00
14142;DHT22;7151;52.246;4.820;2022-08-21T10:24:39;25.60;66.60
14142;DHT22;7151;52.246;4.820;2022-08-21T10:27:31;25.70;65.90
14142;DHT22;7151;52.246;4.820;2022-08-21T10:32:38;25.70;65.00
14142;DHT22;7151;52.246;4.820;2022-08-21T10:40:36;25.90;64.30
14142;DHT22;7151;52.246;4.820;2022-08-21T10:45:48;26.00;64.10
14142;DHT22;7151;52.246;4.820;2022-08-21T10:48:23;26.00;63.60
14142;DHT22;7151;52.246;4.820;2022-08-21T10:51:03;26.10;63.40
14142;DHT22;7151;52.246;4.820;2022-08-21T10:53:50;26.20;63.40
14142;DHT22;7151;52.246;4.820;2022-08-21T10:56:23;26.20;62.80
14142;DHT22;7151;52.246;4.820;2022-08-21T11:04:38;26.40;61.90
14142;DHT22;7151;52.246;4.820;2022-08-21T11:07:21;26.50;61.90
14142;DHT22;7151;52.246;4.820;2022-08-21T11:09:49;26.60;61.50
14142;DHT22;7151;52.246;4.820;2022-08-21T11:12:25;26.70;61.50
14142;DHT22;7151;52.246;4.820;2022-08-21T11:17:40;26.70;60.50
14142;DHT22;7151;52.246;4.820;2022-08-21T11:20:41;26.70;60.00
14142;DHT22;7151;52.246;4.820;2022-08-21T11:23:34;26.70;60.00
14142;DHT22;7151;52.246;4.820;2022-08-21T11:26:07;26.70;59.90
14142;DHT22;7151;52.246;4.820;2022-08-21T11:28:42;26.70;59.90
14142;DHT22;7151;52.246;4.820;2022-08-21T11:34:12;26.70;59.80
14142;DHT22;7151;52.246;4.820;2022-08-21T11:42:36;26.60;59.00
14142;DHT22;7151;52.246;4.820;2022-08-21T11:50:40;26.50;59.10
14142;DHT22;7151;52.246;4.820;2022-08-21T11:53:24;26.50;59.20
14142;DHT22;7151;52.246;4.820;2022-08-21T11:55:55;26.50;59.20
14142;DHT22;7151;52.246;4.820;2022-08-21T12:00:58;26.60;59.20
14142;DHT22;7151;52.246;4.820;2022-08-21T12:03:30;26.60;59.10
14142;DHT22;7151;52.246;4.820;2022-08-21T12:08:30;26.70;58.90
14142;DHT22;7151;52.246;4.820;2022-08-21T12:13:37;26.80;58.60
14142;DHT22;7151;52.246;4.820;2022-08-21T12:16:10;26.90;58.70
14142;DHT22;7151;52.246;4.820;2022-08-21T12:18:36;27.00;58.70
14142;DHT22;7151;52.246;4.820;2022-08-21T12:21:22;27.00;58.70
14142;DHT22;7151;52.246;4.820;2022-08-21T12:24:04;27.10;58.40
14142;DHT22;7151;52.246;4.820;2022-08-21T12:29:39;27.20;57.90
14142;DHT22;7151;52.246;4.820;2022-08-21T12:37:41;27.30;57.80
14142;DHT22;7151;52.246;4.820;2022-08-21T12:40:36;27.40;57.80
14142;DHT22;7151;52.246;4.820;2022-08-21T12:43:03;27.50;58.00
14142;DHT22;7151;52.246;4.820;2022-08-21T12:45:40;27.60;57.90
14142;DHT22;7151;52.246;4.820;2022-08-21T12:48:28;27.60;57.60
14142;DHT22;7151;52.246;4.820;2022-08-21T12:50:58;27.70;57.60
14142;DHT22;7151;52.246;4.820;2022-08-21T12:56:14;27.70;56.70
14142;DHT22;7151;52.246;4.820;2022-08-21T12:58:44;27.80;56.90
14142;DHT22;7151;52.246;4.820;2022-08-21T13:01:22;27.90;56.90
14142;DHT22;7151;52.246;4.820;2022-08-21T13:03:51;27.90;56.10
14142;DHT22;7151;52.246;4.820;2022-08-21T13:06:20;27.90;55.80
14142;DHT22;7151;52.246;4.820;2022-08-21T13:08:48;27.90;55.70
14142;DHT22;7151;52.246;4.820;2022-08-21T13:11:18;27.90;55.80
14142;DHT22;7151;52.246;4.820;2022-08-21T13:13:49;27.90;55.60
14142;DHT22;7151;52.246;4.820;2022-08-21T13:16:22;27.90;55.40
14142;DHT22;7151;52.246;4.820;2022-08-21T13:19:01;27.90;55.20
14142;DHT22;7151;52.246;4.820;2022-08-21T13:21:47;27.90;55.00
14142;DHT22;7151;52.246;4.820;2022-08-21T13:24:21;27.90;54.70
14142;DHT22;7151;52.246;4.820;2022-08-21T13:26:48;27.90;54.70
14142;DHT22;7151;52.246;4.820;2022-08-21T13:29:16;27.90;54.60
14142;DHT22;7151;52.246;4.820;2022-08-21T13:31:57;27.90;54.90
14142;DHT22;7151;52.246;4.820;2022-08-21T13:34:28;27.80;54.40
14142;DHT22;7151;52.246;4.820;2022-08-21T13:36:58;27.80;54.90
14142;DHT22;7151;52.246;4.820;2022-08-21T13:39:24;27.90;54.40
14142;DHT22;7151;52.246;4.820;2022-08-21T13:41:53;27.80;54.40
14142;DHT22;7151;52.246;4.820;2022-08-21T13:44:24;27.80;54.30
14142;DHT22;7151;52.246;4.820;2022-08-21T13:46:57;27.80;54.40
14142;DHT22;7151;52.246;4.820;2022-08-21T13:49:30;27.70;54.00
14142;DHT22;7151;52.246;4.820;2022-08-21T13:51:56;27.70;53.80
14142;DHT22;7151;52.246;4.820;2022-08-21T13:54:39;27.70;53.80
14142;DHT22;7151;52.246;4.820;2022-08-21T13:57:23;27.70;54.00
14142;DHT22;7151;52.246;4.820;2022-08-21T13:59:49;27.60;54.00
14142;DHT22;7151;52.246;4.820;2022-08-21T14:02:21;27.60;54.10
14142;DHT22;7151;52.246;4.820;2022-08-21T14:04:52;27.60;54.00
14142;DHT22;7151;52.246;4.820;2022-08-21T14:09:53;27.60;54.30
14142;DHT22;7151;52.246;4.820;2022-08-21T14:12:29;27.60;54.30
14142;DHT22;7151;52.246;4.820;2022-08-21T14:14:56;27.60;54.00
14142;DHT22;7151;52.246;4.820;2022-08-21T14:17:32;27.60;54.00
14142;DHT22;7151;52.246;4.820;2022-08-21T14:19:58;27.60;53.80
14142;DHT22;7151;52.246;4.820;2022-08-21T14:22:48;27.70;53.70
14142;DHT22;7151;52.246;4.820;2022-08-21T14:28:14;27.60;53.30
14142;DHT22;7151;52.246;4.820;2022-08-21T14:30:42;27.60;53.30
14142;DHT22;7151;52.246;4.820;2022-08-21T14:33:18;27.60;53.30
14142;DHT22;7151;52.246;4.820;2022-08-21T14:35:45;27.60;53.40
14142;DHT22;7151;52.246;4.820;2022-08-21T14:38:14;27.60;53.60
14142;DHT22;7151;52.246;4.820;2022-08-21T14:40:40;27.70;53.70
14142;DHT22;7151;52.246;4.820;2022-08-21T14:43:05;27.70;53.70
14142;DHT22;7151;52.246;4.820;2022-08-21T14:45:33;27.60;53.60
14142;DHT22;7151;52.246;4.820;2022-08-21T14:47:59;27.60;53.70
14142;DHT22;7151;52.246;4.820;2022-08-21T14:50:25;27.70;53.70
14142;DHT22;7151;52.246;4.820;2022-08-21T14:52:51;27.70;53.70
14142;DHT22;7151;52.246;4.820;2022-08-21T14:55:17;27.70;53.50
14142;DHT22;7151;52.246;4.820;2022-08-21T14:57:49;27.70;53.50
14142;DHT22;7151;52.246;4.820;2022-08-21T15:00:19;27.70;53.60
14142;DHT22;7151;52.246;4.820;2022-08-21T15:02:46;27.70;53.80
14142;DHT22;7151;52.246;4.820;2022-08-21T15:05:12;27.60;53.50
14142;DHT22;7151;52.246;4.820;2022-08-21T15:07:38;27.70;53.60
14142;DHT22;7151;52.246;4.820;2022-08-21T15:10:05;27.60;53.50
14142;DHT22;7151;52.246;4.820;2022-08-21T15:12:30;27.60;53.60
14142;DHT22;7151;52.246;4.820;2022-08-21T15:14:56;27.60;53.60
14142;DHT22;7151;52.246;4.820;2022-08-21T15:17:22;27.60;53.60
14142;DHT22;7151;52.246;4.820;2022-08-21T15:19:48;27.60;53.60
14142;DHT22;7151;52.246;4.820;2022-08-21T15:22:13;27.60;53.80
14142;DHT22;7151;52.246;4.820;2022-08-21T15:24:39;27.60;53.90
14142;DHT22;7151;52.246;4.820;2022-08-21T15:27:06;27.60;54.00
14142;DHT22;7151;52.246;4.820;2022-08-21T15:29:33;27.60;54.00
14142;DHT22;7151;52.246;4.820;2022-08-21T15:32:17;27.60;53.90
14142;DHT22;7151;52.246;4.820;2022-08-21T15:34:43;27.60;53.70
14142;DHT22;7151;52.246;4.820;2022-08-21T15:37:08;27.60;53.60
14142;DHT22;7151;52.246;4.820;2022-08-21T15:39:35;27.60;53.60
14142;DHT22;7151;52.246;4.820;2022-08-21T15:42:02;27.70;53.40
14142;DHT22;7151;52.246;4.820;2022-08-21T15:44:28;27.60;53.20
14142;DHT22;7151;52.246;4.820;2022-08-21T15:46:55;27.60;53.10
14142;DHT22;7151;52.246;4.820;2022-08-21T15:49:21;27.60;53.00
14142;DHT22;7151;52.246;4.820;2022-08-21T15:51:47;27.60;52.90
14142;DHT22;7151;52.246;4.820;2022-08-21T15:54:13;27.60;52.80
14142;DHT22;7151;52.246;4.820;2022-08-21T15:56:40;27.60;52.70
14142;DHT22;7151;52.246;4.820;2022-08-21T15:59:15;27.60;52.70
14142;DHT22;7151;52.246;4.820;2022-08-21T16:01:42;27.60;52.40
14142;DHT22;7151;52.246;4.820;2022-08-21T16:04:08;27.60;52.50
14142;DHT22;7151;52.246;4.820;2022-08-21T16:06:34;27.70;52.70
14142;DHT22;7151;52.246;4.820;2022-08-21T16:09:00;27.60;52.60
14142;DHT22;7151;52.246;4.820;2022-08-21T16:11:27;27.60;53.10
14142;DHT22;7151;52.246;4.820;2022-08-21T16:13:54;27.60;52.40
14142;DHT22;7151;52.246;4.820;2022-08-21T16:16:22;27.60;52.50
14142;DHT22;7151;52.246;4.820;2022-08-21T16:18:49;27.60;52.50
14142;DHT22;7151;52.246;4.820;2022-08-21T16:21:15;27.60;52.50
14142;DHT22;7151;52.246;4.820;2022-08-21T16:23:41;27.60;52.70
14142;DHT22;7151;52.246;4.820;2022-08-21T16:26:09;27.60;52.60
14142;DHT22;7151;52.246;4.820;2022-08-21T16:28:37;27.60;52.70
14142;DHT22;7151;52.246;4.820;2022-08-21T16:31:04;27.60;52.60
14142;DHT22;7151;52.246;4.820;2022-08-21T16:33:42;27.60;52.40
14142;DHT22;7151;52.246;4.820;2022-08-21T16:36:09;27.60;52.40
14142;DHT22;7151;52.246;4.820;2022-08-21T16:38:36;27.60;52.50
14142;DHT22;7151;52.246;4.820;2022-08-21T16:41:03;27.60;52.50
14142;DHT22;7151;52.246;4.820;2022-08-21T16:43:29;27.60;52.50
14142;DHT22;7151;52.246;4.820;2022-08-21T16:45:56;27.60;52.30
14142;DHT22;7151;52.246;4.820;2022-08-21T16:48:23;27.60;52.20
14142;DHT22;7151;52.246;4.820;2022-08-21T16:50:49;27.60;52.00
14142;DHT22;7151;52.246;4.820;2022-08-21T16:53:15;27.50;51.60
14142;DHT22;7151;52.246;4.820;2022-08-21T16:55:42;27.50;51.60
14142;DHT22;7151;52.246;4.820;2022-08-21T16:58:12;27.50;51.40
14142;DHT22;7151;52.246;4.820;2022-08-21T17:00:39;27.50;51.40
14142;DHT22;7151;52.246;4.820;2022-08-21T17:03:12;27.40;51.40
14142;DHT22;7151;52.246;4.820;2022-08-21T17:05:38;27.40;51.50
14142;DHT22;7151;52.246;4.820;2022-08-21T17:08:04;27.30;51.60
14142;DHT22;7151;52.246;4.820;2022-08-21T17:10:30;27.30;51.60
14142;DHT22;7151;52.246;4.820;2022-08-21T17:12:56;27.30;51.60
14142;DHT22;7151;52.246;4.820;2022-08-21T17:15:32;27.30;51.60